Time;durP1;ratioP1;P1;durP2;ratioP2;P2;SDS_P1;SDS_P2;PMS_P1;PMS_P2;Temp;Humidity;BMP_temperature;BMP_pressure;BME280_temperature;BME280_humidity;BME280_pressure;Samples;Min_cycle;Max_cycle;Signal;HPM_P1;HPM_P2
2023/01/12 00:01:53;;;;;;;4.23;1.70;;;7.70;99.90;;;;;;5074040;27;20204;-69
2023/01/12 00:04:20;;;;;;;7.07;1.90;;;8.10;99.90;;;;;;5093932;27;20219;-69
2023/01/12 00:06:47;;;;;;;5.23;1.90;;;8.10;99.90;;;;;;5069837;27;20211;-69
2023/01/12 00:09:14;;;;;;;4.37;1.70;;;8.20;99.90;;;;;;5093385;27;20213;-68
2023/01/12 00:11:42;;;;;;;7.80;2.13;;;8.10;99.90;;;;;;5073286;27;20219;-68
2023/01/12 00:14:09;;;;;;;5.00;1.50;;;8.20;99.90;;;;;;5082715;27;20226;-68
2023/01/12 00:16:38;;;;;;;7.47;2.13;;;8.20;99.90;;;;;;5081214;27;20203;-69
2023/01/12 00:19:10;;;;;;;6.17;1.63;;;8.20;99.90;;;;;;5086370;27;20196;-69
2023/01/12 00:21:50;;;;;;;2.77;1.50;;;8.30;99.90;;;;;;5061973;27;20218;-69
2023/01/12 00:24:18;;;;;;;5.83;1.73;;;8.30;99.90;;;;;;5098789;27;20577;-69
2023/01/12 00:26:46;;;;;;;4.53;1.57;;;8.30;99.90;;;;;;5088596;27;20333;-69
2023/01/12 00:29:13;;;;;;;6.30;2.13;;;8.30;99.90;;;;;;5089810;27;20229;-68
2023/01/12 00:31:40;;;;;;;3.03;1.40;;;8.30;99.90;;;;;;5087592;27;20215;-68
2023/01/12 00:34:08;;;;;;;4.63;1.70;;;8.30;99.90;;;;;;5090476;27;20211;-68
2023/01/12 00:36:35;;;;;;;7.40;1.57;;;8.20;99.90;;;;;;5065501;27;20235;-69
2023/01/12 00:39:02;;;;;;;4.23;1.47;;;8.30;99.90;;;;;;5096935;27;20295;-69
2023/01/12 00:46:58;;;;;;;4.90;1.80;;;8.30;99.90;;;;;;5087952;27;21109;-68
2023/01/12 00:49:26;;;;;;;6.50;1.60;;;8.30;99.90;;;;;;5081031;27;20685;-68
2023/01/12 00:51:53;;;;;;;6.97;1.50;;;8.30;99.90;;;;;;5097276;27;20572;-68
2023/01/12 00:54:20;;;;;;;7.77;1.30;;;8.30;99.90;;;;;;5059878;27;20234;-69
2023/01/12 00:56:47;;;;;;;7.67;1.60;;;8.30;99.90;;;;;;5096366;27;20671;-69
2023/01/12 00:59:14;;;;;;;5.70;1.70;;;8.20;99.90;;;;;;5087386;27;20640;-69
2023/01/12 01:01:41;;;;;;;4.43;1.50;;;8.20;99.90;;;;;;5084474;27;20300;-69
2023/01/12 01:04:08;;;;;;;10.73;2.10;;;8.20;99.90;;;;;;5071727;27;20206;-69
2023/01/12 01:06:38;;;;;;;9.00;1.77;;;8.20;99.90;;;;;;5093576;27;20191;-69
2023/01/12 01:09:06;;;;;;;6.00;1.67;;;8.20;99.90;;;;;;5069754;27;20218;-68
2023/01/12 01:11:34;;;;;;;8.57;1.80;;;8.20;99.90;;;;;;5093491;27;20205;-69
2023/01/12 01:14:01;;;;;;;4.37;1.60;;;8.20;99.90;;;;;;5092832;27;20211;-68
2023/01/12 01:16:28;;;;;;;8.37;2.07;;;8.20;99.90;;;;;;5073418;27;20227;-69
2023/01/12 01:18:55;;;;;;;6.40;1.70;;;8.20;99.90;;;;;;5088899;27;20199;-69
2023/01/12 01:21:22;;;;;;;4.70;1.40;;;8.20;99.90;;;;;;5081423;27;20218;-69
2023/01/12 01:23:50;;;;;;;4.50;1.77;;;8.20;99.90;;;;;;5068711;27;20207;-69
2023/01/12 01:26:19;;;;;;;6.40;1.70;;;8.20;99.90;;;;;;5095400;27;20231;-69
2023/01/12 01:28:47;;;;;;;7.90;1.83;;;8.20;99.90;;;;;;5084786;27;21174;-69
2023/01/12 01:31:15;;;;;;;4.40;2.20;;;8.20;99.90;;;;;;5080395;27;20691;-69
2023/01/12 01:33:43;;;;;;;5.50;1.97;;;8.20;99.90;;;;;;5086886;27;20650;-69
2023/01/12 01:36:11;;;;;;;11.80;2.27;;;8.20;99.90;;;;;;5086138;27;20198;-69
2023/01/12 01:38:39;;;;;;;2.80;1.43;;;8.10;99.90;;;;;;5094490;27;20896;-69
2023/01/12 01:41:07;;;;;;;7.00;1.73;;;8.20;99.90;;;;;;5060783;27;20203;-68
2023/01/12 01:43:50;;;;;;;8.77;1.90;;;8.10;99.90;;;;;;5101076;27;20199;-69
2023/01/12 01:46:27;;;;;;;5.90;1.40;;;8.20;99.90;;;;;;5076183;27;20605;-69
2023/01/12 01:48:54;;;;;;;7.30;1.50;;;8.20;99.90;;;;;;5094945;27;20820;-69
2023/01/12 01:51:21;;;;;;;6.07;1.57;;;8.20;99.90;;;;;;5087532;27;20652;-69
2023/01/12 01:53:49;;;;;;;5.13;1.80;;;8.20;99.90;;;;;;5095029;27;20206;-69
2023/01/12 01:56:22;;;;;;;7.00;1.53;;;8.10;99.90;;;;;;5052133;27;20227;-69
2023/01/12 01:58:53;;;;;;;7.07;1.97;;;8.20;99.90;;;;;;5093295;27;20223;-69
2023/01/12 02:01:20;;;;;;;6.53;1.80;;;8.20;99.90;;;;;;5078785;27;20199;-69
2023/01/12 02:03:47;;;;;;;7.00;1.60;;;8.20;99.90;;;;;;5100639;27;20207;-68
2023/01/12 02:06:15;;;;;;;3.07;1.20;;;8.20;99.90;;;;;;5089050;27;20207;-69
2023/01/12 02:08:47;;;;;;;8.73;1.90;;;8.10;99.90;;;;;;5090283;27;20237;-69
2023/01/12 02:16:50;;;;;;;4.37;1.97;;;8.10;99.90;;;;;;5039439;27;20206;-69
2023/01/12 02:19:39;;;;;;;7.23;1.77;;;8.10;99.90;;;;;;5072769;27;20688;-69
2023/01/12 02:22:34;;;;;;;5.87;1.90;;;8.10;99.90;;;;;;5088512;27;20204;-69
2023/01/12 02:25:38;;;;;;;6.53;1.47;;;8.10;99.90;;;;;;5091567;27;20218;-69
2023/01/12 02:28:29;;;;;;;3.13;1.30;;;8.10;99.90;;;;;;5074382;27;20351;-69
2023/01/12 02:31:26;;;;;;;4.23;1.43;;;8.10;99.90;;;;;;5088320;27;20227;-69
2023/01/12 02:34:07;;;;;;;3.97;1.40;;;8.10;99.90;;;;;;5073548;27;20206;-69
2023/01/12 02:36:48;;;;;;;3.83;1.33;;;8.10;99.90;;;;;;5093190;27;20218;-69
2023/01/12 02:39:20;;;;;;;5.03;1.60;;;8.10;99.90;;;;;;5091180;27;20212;-69
2023/01/12 02:44:45;;;;;;;10.17;1.63;;;8.10;99.90;;;;;;5088077;27;20217;-69
2023/01/12 02:47:23;;;;;;;3.40;1.60;;;8.00;99.90;;;;;;5063337;27;20210;-69
2023/01/12 02:49:53;;;;;;;3.83;1.63;;;8.00;99.90;;;;;;5085422;27;21387;-68
2023/01/12 02:52:24;;;;;;;4.83;2.10;;;8.00;99.90;;;;;;5079217;27;20226;-69
2023/01/12 02:54:53;;;;;;;7.80;2.47;;;8.00;99.90;;;;;;5100112;27;20264;-69
2023/01/12 02:57:21;;;;;;;8.77;3.20;;;8.00;99.90;;;;;;5060633;27;20202;-69
2023/01/12 02:59:50;;;;;;;7.30;2.60;;;7.90;99.90;;;;;;5083911;27;20214;-68
2023/01/12 03:02:22;;;;;;;8.90;3.30;;;8.00;99.90;;;;;;5095669;27;20804;-69
2023/01/12 03:04:49;;;;;;;11.30;3.73;;;8.00;99.90;;;;;;5083658;27;20688;-69
2023/01/12 03:07:28;;;;;;;7.57;3.10;;;8.10;99.90;;;;;;5065748;27;20292;-69
2023/01/12 03:10:00;;;;;;;11.07;3.27;;;8.00;99.90;;;;;;5084562;27;20317;-69
2023/01/12 03:12:31;;;;;;;7.20;2.83;;;8.10;99.90;;;;;;5068704;27;20234;-69
2023/01/12 03:15:02;;;;;;;9.60;3.37;;;8.10;99.90;;;;;;5082782;27;20207;-69
2023/01/12 03:17:34;;;;;;;8.83;3.50;;;8.10;99.90;;;;;;5086912;27;20195;-69
2023/01/12 03:20:07;;;;;;;7.17;3.23;;;8.00;99.90;;;;;;5080677;27;20206;-69
2023/01/12 03:22:36;;;;;;;7.93;3.23;;;8.10;99.90;;;;;;5076786;27;20203;-69
2023/01/12 03:25:09;;;;;;;11.87;3.93;;;8.10;99.90;;;;;;5088598;27;20360;-69
2023/01/12 03:27:40;;;;;;;7.30;2.67;;;8.10;99.90;;;;;;5085395;27;20285;-69
2023/01/12 03:30:12;;;;;;;5.23;2.53;;;8.10;99.90;;;;;;5072559;27;20214;-69
2023/01/12 03:32:41;;;;;;;5.60;2.67;;;8.10;99.90;;;;;;5097778;27;20603;-69
2023/01/12 03:35:08;;;;;;;8.13;2.80;;;8.10;99.90;;;;;;5085332;27;20214;-69
2023/01/12 03:37:39;;;;;;;6.43;2.27;;;8.10;99.90;;;;;;5077426;27;20387;-68
2023/01/12 03:40:12;;;;;;;10.67;2.57;;;8.10;99.90;;;;;;5086397;27;20207;-69
2023/01/12 03:42:45;;;;;;;5.00;2.50;;;8.20;99.90;;;;;;5088919;27;20207;-69
2023/01/12 03:45:22;;;;;;;9.20;2.97;;;8.20;99.90;;;;;;5074871;27;20206;-69
2023/01/12 03:47:55;;;;;;;8.30;2.30;;;8.20;99.90;;;;;;5090895;27;20203;-69
2023/01/12 03:50:26;;;;;;;5.67;2.13;;;8.20;99.90;;;;;;5085042;27;20191;-68
2023/01/12 03:52:55;;;;;;;6.50;2.87;;;8.20;99.90;;;;;;5089987;27;20236;-68
2023/01/12 03:55:24;;;;;;;4.13;2.00;;;8.20;99.90;;;;;;5082599;27;20226;-69
2023/01/12 03:57:52;;;;;;;4.07;2.07;;;8.30;99.90;;;;;;5090448;27;20218;-69
2023/01/12 04:00:21;;;;;;;2.60;1.97;;;8.20;99.90;;;;;;5079721;27;20206;-69
2023/01/12 04:02:48;;;;;;;6.57;2.10;;;8.30;99.90;;;;;;5086088;27;20714;-69
2023/01/12 04:05:16;;;;;;;4.50;1.67;;;8.30;99.90;;;;;;5093057;27;20215;-69
2023/01/12 04:07:43;;;;;;;6.97;2.00;;;8.30;99.90;;;;;;5086751;27;20407;-68
2023/01/12 04:10:11;;;;;;;7.23;2.00;;;8.30;99.90;;;;;;5083713;27;20250;-68
2023/01/12 04:12:37;;;;;;;2.43;2.10;;;8.30;99.90;;;;;;5077040;27;20322;-69
2023/01/12 04:15:05;;;;;;;6.00;2.03;;;8.30;99.90;;;;;;5085202;27;20217;-69
2023/01/12 04:17:32;;;;;;;2.00;1.70;;;8.30;99.90;;;;;;5069628;27;20207;-69
2023/01/12 04:19:58;;;;;;;5.43;2.30;;;8.30;99.90;;;;;;5095877;27;20206;-69
2023/01/12 04:22:45;;;;;;;3.67;2.00;;;8.30;99.90;;;;;;5084783;27;20194;-68
2023/01/12 04:25:13;;;;;;;3.80;2.10;;;8.40;99.90;;;;;;5092336;27;20705;-69
2023/01/12 04:27:46;;;;;;;8.70;2.43;;;8.30;99.90;;;;;;5069853;27;20570;-69
2023/01/12 04:30:14;;;;;;;4.57;2.20;;;8.40;99.90;;;;;;5084037;27;20227;-69
2023/01/12 04:32:42;;;;;;;5.90;2.30;;;8.30;99.90;;;;;;5059193;27;20962;-69
2023/01/12 04:35:10;;;;;;;5.63;2.27;;;8.30;99.90;;;;;;5092573;27;20230;-69
2023/01/12 04:37:39;;;;;;;3.63;1.97;;;8.30;99.90;;;;;;5071088;27;20727;-69
2023/01/12 04:40:08;;;;;;;5.43;2.23;;;8.30;99.90;;;;;;5092174;27;20201;-69
2023/01/12 04:45:28;;;;;;;4.13;2.10;;;8.30;99.90;;;;;;5045398;27;20251;-69
2023/01/12 04:47:57;;;;;;;6.80;2.20;;;8.30;99.90;;;;;;5049668;27;20207;-69
2023/01/12 04:50:23;;;;;;;4.70;1.97;;;8.30;99.90;;;;;;5080363;27;20251;-69
2023/01/12 04:52:52;;;;;;;6.20;2.17;;;8.50;99.90;;;;;;5064888;27;20230;-69
2023/01/12 04:55:18;;;;;;;3.60;2.00;;;8.40;99.90;;;;;;5088198;27;20223;-69
2023/01/12 04:57:45;;;;;;;6.03;2.23;;;8.40;99.90;;;;;;5066428;27;20203;-69
2023/01/12 05:00:13;;;;;;;6.07;1.97;;;8.30;99.90;;;;;;5083695;27;20218;-69
2023/01/12 05:02:39;;;;;;;4.50;1.93;;;8.40;99.90;;;;;;5067249;27;21023;-69
2023/01/12 05:05:08;;;;;;;6.80;2.13;;;8.40;99.90;;;;;;5093472;27;20202;-69
2023/01/12 05:07:34;;;;;;;5.27;1.87;;;8.40;99.90;;;;;;5087039;27;20204;-69
2023/01/12 05:12:47;;;;;;;3.23;1.53;;;8.40;99.90;;;;;;5082483;27;20210;-69
2023/01/12 05:15:14;;;;;;;2.80;1.80;;;8.40;99.90;;;;;;5081696;27;20203;-69
2023/01/12 05:17:41;;;;;;;5.37;1.73;;;8.40;99.90;;;;;;5053222;27;20215;-69
2023/01/12 05:20:09;;;;;;;4.43;1.90;;;8.40;99.90;;;;;;5089932;27;20306;-69
2023/01/12 05:22:36;;;;;;;3.17;1.60;;;8.40;99.90;;;;;;5074438;27;20199;-69
2023/01/12 05:25:05;;;;;;;5.40;1.80;;;8.40;99.90;;;;;;5089191;27;20203;-69
2023/01/12 05:27:31;;;;;;;1.80;1.57;;;8.50;99.90;;;;;;5087305;27;20672;-69
2023/01/12 05:29:58;;;;;;;4.20;1.50;;;8.50;99.90;;;;;;5068115;27;20913;-69
2023/01/12 05:32:25;;;;;;;2.73;1.77;;;8.50;99.90;;;;;;5070520;27;20199;-69
2023/01/12 05:34:52;;;;;;;8.43;1.77;;;8.50;99.90;;;;;;5079161;27;20767;-69
2023/01/12 05:37:19;;;;;;;4.83;1.67;;;8.50;99.90;;;;;;5082054;27;20219;-69
2023/01/12 05:39:46;;;;;;;4.47;1.53;;;8.50;99.90;;;;;;5079326;27;20231;-69
2023/01/12 05:44:58;;;;;;;1.60;1.40;;;8.50;99.90;;;;;;5078126;27;20218;-69
2023/01/12 05:47:25;;;;;;;2.13;1.27;;;8.50;99.90;;;;;;5072119;27;20222;-70
2023/01/12 05:49:52;;;;;;;2.90;1.40;;;8.40;99.90;;;;;;5093612;27;20230;-69
2023/01/12 05:52:19;;;;;;;2.10;1.90;;;8.50;99.90;;;;;;5092415;27;20244;-69
2023/01/12 05:54:45;;;;;;;1.73;1.50;;;8.50;99.90;;;;;;5071563;27;20235;-68
2023/01/12 05:57:14;;;;;;;2.77;1.33;;;8.60;99.90;;;;;;5083756;27;20253;-69
2023/01/12 05:59:40;;;;;;;2.23;1.30;;;8.50;99.90;;;;;;5075192;27;20241;-69
2023/01/12 06:02:10;;;;;;;2.73;1.40;;;8.50;99.90;;;;;;5072750;27;20981;-69
2023/01/12 06:04:37;;;;;;;3.17;1.33;;;8.50;99.90;;;;;;5072708;27;20205;-69
2023/01/12 06:07:04;;;;;;;3.20;1.30;;;8.60;99.90;;;;;;5079916;27;20589;-69
2023/01/12 06:09:31;;;;;;;5.30;1.40;;;8.60;99.90;;;;;;5083349;27;20223;-69
2023/01/12 06:14:43;;;;;;;2.73;0.87;;;8.60;99.90;;;;;;5078751;27;20242;-69
2023/01/12 06:17:10;;;;;;;1.07;1.00;;;8.60;99.90;;;;;;5070465;27;20223;-69
2023/01/12 06:19:37;;;;;;;2.53;0.90;;;8.60;99.90;;;;;;5076217;27;20238;-69
2023/01/12 06:22:06;;;;;;;1.67;1.10;;;8.70;99.90;;;;;;5083572;27;20235;-69
2023/01/12 06:24:33;;;;;;;1.90;0.97;;;8.70;99.90;;;;;;5088781;27;20226;-69
2023/01/12 06:27:00;;;;;;;2.50;1.00;;;8.60;99.90;;;;;;5099416;27;20198;-69
2023/01/12 06:29:27;;;;;;;2.37;1.33;;;8.60;99.90;;;;;;5101290;27;20230;-69
2023/01/12 06:31:55;;;;;;;1.33;1.00;;;8.60;99.90;;;;;;5083774;27;20289;-69
2023/01/12 06:34:22;;;;;;;5.20;1.33;;;8.60;99.90;;;;;;5068821;27;20271;-69
2023/01/12 06:36:49;;;;;;;1.87;1.00;;;8.70;99.90;;;;;;5093009;27;20743;-69
2023/01/12 06:39:16;;;;;;;2.43;1.33;;;8.60;99.90;;;;;;5098873;27;20202;-69
2023/01/12 06:44:27;;;;;;;4.33;0.93;;;8.60;99.90;;;;;;5100271;27;20279;-69
2023/01/12 06:46:55;;;;;;;2.70;0.97;;;8.60;99.90;;;;;;5097355;27;20209;-69
2023/01/12 06:49:21;;;;;;;2.50;1.10;;;8.60;99.90;;;;;;5062463;27;20223;-69
2023/01/12 06:51:50;;;;;;;3.10;1.00;;;8.50;99.90;;;;;;5100119;27;20621;-68
2023/01/12 06:54:16;;;;;;;2.70;1.20;;;8.60;99.90;;;;;;5101434;27;20280;-69
2023/01/12 06:56:43;;;;;;;2.00;1.20;;;8.60;99.90;;;;;;5088454;27;20581;-69
2023/01/12 06:59:11;;;;;;;2.17;1.00;;;8.60;99.90;;;;;;5101527;27;20905;-69
2023/01/12 07:01:38;;;;;;;2.70;0.87;;;8.50;99.90;;;;;;5097164;27;20416;-69
2023/01/12 07:04:07;;;;;;;4.27;1.10;;;8.50;99.90;;;;;;5073788;27;21256;-69
2023/01/12 07:06:34;;;;;;;2.67;0.80;;;8.50;99.90;;;;;;5079488;27;20210;-69
2023/01/12 07:09:01;;;;;;;1.67;0.87;;;8.50;99.90;;;;;;5086223;27;20230;-69
2023/01/12 07:11:28;;;;;;;3.13;0.70;;;8.50;99.90;;;;;;5079892;27;20251;-69
2023/01/12 07:13:55;;;;;;;1.60;1.03;;;8.50;99.90;;;;;;5086404;27;20223;-69
2023/01/12 07:16:22;;;;;;;1.17;0.80;;;8.50;99.90;;;;;;5101210;27;20217;-69
2023/01/12 07:18:49;;;;;;;5.63;0.97;;;8.50;99.90;;;;;;5098540;27;20237;-68
2023/01/12 07:21:18;;;;;;;0.60;0.60;;;8.50;99.90;;;;;;5066102;27;20704;-69
2023/01/12 07:23:45;;;;;;;2.63;0.83;;;8.50;99.90;;;;;;5084208;27;20187;-69
2023/01/12 07:26:13;;;;;;;1.80;0.80;;;8.50;99.90;;;;;;5087897;27;20313;-69
2023/01/12 07:28:41;;;;;;;3.17;0.90;;;8.50;99.90;;;;;;5081709;27;20210;-69
2023/01/12 07:31:08;;;;;;;0.87;0.87;;;8.50;99.90;;;;;;5086299;27;20233;-69
2023/01/12 07:33:36;;;;;;;3.70;1.03;;;8.50;99.90;;;;;;5097377;27;20219;-69
2023/01/12 07:36:03;;;;;;;2.13;1.20;;;8.50;99.90;;;;;;5064312;27;20207;-69
2023/01/12 07:38:32;;;;;;;1.70;1.03;;;8.50;99.90;;;;;;5094906;27;20426;-69
2023/01/12 07:40:59;;;;;;;3.50;1.00;;;8.50;99.90;;;;;;5100471;27;20209;-69
2023/01/12 07:43:25;;;;;;;4.60;1.37;;;8.50;99.90;;;;;;5076426;27;20251;-69
2023/01/12 07:45:52;;;;;;;1.50;1.00;;;8.50;99.90;;;;;;5095663;27;20203;-69
2023/01/12 07:48:20;;;;;;;1.70;1.00;;;8.50;99.90;;;;;;5092400;27;20187;-69
2023/01/12 07:50:46;;;;;;;0.87;0.50;;;8.50;99.90;;;;;;5059034;27;20607;-69
2023/01/12 07:53:13;;;;;;;1.20;0.67;;;8.50;99.90;;;;;;5096842;27;20584;-69
2023/01/12 07:55:42;;;;;;;1.63;0.73;;;8.50;99.90;;;;;;5091675;27;20865;-69
2023/01/12 07:58:09;;;;;;;2.00;1.13;;;8.50;99.90;;;;;;5082183;27;21538;-69
2023/01/12 08:00:37;;;;;;;1.73;0.80;;;8.50;99.90;;;;;;5071979;27;20207;-69
2023/01/12 08:03:05;;;;;;;2.20;0.47;;;8.60;99.90;;;;;;5095737;27;20192;-69
2023/01/12 08:05:33;;;;;;;2.53;0.97;;;8.60;99.90;;;;;;5069218;27;20214;-69
2023/01/12 08:07:59;;;;;;;1.13;0.60;;;8.60;99.90;;;;;;5092010;27;20219;-69
2023/01/12 08:10:27;;;;;;;3.17;0.80;;;8.80;99.90;;;;;;5094212;27;20235;-69
2023/01/12 08:12:55;;;;;;;1.30;1.10;;;8.70;99.90;;;;;;5099648;27;20200;-69
2023/01/12 08:15:22;;;;;;;0.83;0.70;;;8.70;99.90;;;;;;5073577;27;20222;-69
2023/01/12 08:17:54;;;;;;;0.53;0.53;;;8.70;99.90;;;;;;5094408;27;20210;-69
2023/01/12 08:20:25;;;;;;;0.57;0.53;;;8.70;99.90;;;;;;5094991;27;20213;-69
2023/01/12 08:22:55;;;;;;;0.80;0.53;;;8.80;99.90;;;;;;5068852;27;20320;-70
2023/01/12 08:25:26;;;;;;;0.60;0.57;;;8.80;99.90;;;;;;5094906;27;20215;-70
2023/01/12 08:28:00;;;;;;;0.77;0.70;;;8.80;99.90;;;;;;5090512;27;20195;-70
2023/01/12 08:30:28;;;;;;;0.90;0.60;;;8.80;99.90;;;;;;5072937;27;20325;-70
2023/01/12 08:32:56;;;;;;;1.97;0.90;;;8.90;99.90;;;;;;5084328;27;20657;-70
2023/01/12 08:35:25;;;;;;;1.47;0.80;;;8.90;99.90;;;;;;5089078;27;20195;-70
2023/01/12 08:37:52;;;;;;;1.23;0.80;;;8.80;99.90;;;;;;5060735;27;20203;-70
2023/01/12 08:40:19;;;;;;;2.30;0.60;;;8.90;99.90;;;;;;5097722;27;20571;-70
2023/01/12 08:42:46;;;;;;;1.67;0.73;;;8.90;99.90;;;;;;5097531;27;22221;-69
2023/01/12 08:45:14;;;;;;;1.13;0.97;;;8.90;99.90;;;;;;5085406;27;20684;-70
2023/01/12 08:47:43;;;;;;;1.70;0.83;;;9.00;99.90;;;;;;5088234;27;20206;-70
2023/01/12 08:50:10;;;;;;;1.10;1.00;;;9.00;99.90;;;;;;5097242;27;21035;-69
2023/01/12 08:52:37;;;;;;;1.47;1.20;;;9.00;99.90;;;;;;5095495;27;20199;-70
2023/01/12 08:55:05;;;;;;;1.80;0.97;;;9.10;99.90;;;;;;5043400;27;1058490;-70
2023/01/12 08:57:32;;;;;;;4.07;1.50;;;9.10;99.90;;;;;;5097982;27;20211;-70
2023/01/12 08:59:59;;;;;;;1.60;1.50;;;9.10;99.90;;;;;;5086943;27;23620;-70
2023/01/12 09:02:27;;;;;;;1.63;1.53;;;9.10;99.90;;;;;;5087177;27;20698;-70
2023/01/12 09:04:54;;;;;;;1.83;1.35;;;9.10;99.90;;;;;;5094704;27;20200;-69
2023/01/12 09:07:21;;;;;;;1.88;1.17;;;9.10;99.90;;;;;;5099523;27;20276;-70
2023/01/12 09:09:48;;;;;;;4.30;1.50;;;9.20;99.90;;;;;;5057671;27;20226;-70
2023/01/12 09:12:15;;;;;;;1.75;1.65;;;9.30;99.90;;;;;;5092061;27;20199;-70
2023/01/12 09:14:42;;;;;;;2.77;1.50;;;9.30;99.90;;;;;;5095828;27;20203;-70
2023/01/12 09:17:08;;;;;;;2.83;1.80;;;9.30;99.90;;;;;;5074031;27;20203;-70
2023/01/12 09:19:37;;;;;;;2.17;1.77;;;9.40;99.90;;;;;;5096826;27;20207;-69
2023/01/12 09:22:03;;;;;;;1.80;1.70;;;9.40;99.90;;;;;;5095459;27;21075;-70
2023/01/12 09:24:30;;;;;;;2.63;1.98;;;9.40;99.90;;;;;;5078242;27;20702;-70
2023/01/12 09:26:57;;;;;;;3.28;2.15;;;9.40;99.90;;;;;;5094376;27;20234;-69
2023/01/12 09:29:24;;;;;;;2.20;2.00;;;9.40;99.90;;;;;;5102428;27;20202;-69
2023/01/12 09:31:51;;;;;;;1.40;1.30;;;9.50;99.90;;;;;;5083735;27;20227;-70
2023/01/12 09:34:17;;;;;;;1.40;1.30;;;9.50;99.90;;;;;;5077396;27;20206;-70
2023/01/12 09:36:45;;;;;;;1.40;1.30;;;9.60;99.90;;;;;;5103931;27;20191;-69
2023/01/12 09:39:16;;;;;;;1.15;1.05;;;9.50;99.90;;;;;;5075065;27;20204;-69
2023/01/12 09:47:26;;;;;;;1.08;0.40;;;9.60;99.90;;;;;;5077273;27;20321;-69
2023/01/12 09:49:58;;;;;;;1.17;0.63;;;9.60;99.90;;;;;;5089768;27;20215;-69
2023/01/12 09:52:28;;;;;;;2.35;0.70;;;9.60;99.90;;;;;;5097564;27;20712;-69
2023/01/12 09:54:55;;;;;;;0.65;0.65;;;9.60;99.90;;;;;;5078507;27;20231;-69
2023/01/12 09:57:41;;;;;;;0.57;0.57;;;9.70;99.90;;;;;;5093658;27;20858;-69
2023/01/12 10:00:11;;;;;;;0.70;0.70;;;9.70;99.90;;;;;;5100502;27;20268;-69
2023/01/12 10:02:41;;;;;;;1.70;0.60;;;9.80;99.90;;;;;;5087584;27;20211;-69
2023/01/12 10:05:17;;;;;;;0.73;0.73;;;9.80;99.90;;;;;;5081312;27;20230;-69
2023/01/12 10:07:46;;;;;;;0.60;0.60;;;9.80;99.90;;;;;;5093945;27;20211;-70
2023/01/12 10:10:15;;;;;;;0.45;0.45;;;9.80;99.90;;;;;;5081865;27;20231;-70
2023/01/12 10:12:49;;;;;;;0.90;0.65;;;9.80;99.90;;;;;;5087384;27;20663;-69
2023/01/12 10:15:31;;;;;;;1.70;0.80;;;9.90;99.90;;;;;;5089815;27;20226;-69
2023/01/12 10:18:03;;;;;;;0.65;0.57;;;9.90;99.90;;;;;;5080147;27;21505;-69
2023/01/12 10:20:34;;;;;;;0.57;0.50;;;9.80;99.90;;;;;;5087616;27;20215;-69
2023/01/12 10:23:13;;;;;;;1.05;0.75;;;9.90;99.90;;;;;;5096995;27;20215;-69
2023/01/12 10:25:42;;;;;;;1.50;0.50;;;9.90;99.90;;;;;;5097867;27;20572;-69
2023/01/12 10:28:16;;;;;;;0.47;0.47;;;9.90;99.90;;;;;;5070530;27;20218;-69
2023/01/12 10:30:43;;;;;;;0.40;0.40;;;9.90;99.90;;;;;;5085773;27;20241;-69
2023/01/12 10:33:12;;;;;;;1.30;0.50;;;10.00;99.90;;;;;;5084810;27;20223;-69
2023/01/12 10:35:52;;;;;;;0.60;0.60;;;10.00;99.90;;;;;;5088465;27;20195;-69
2023/01/12 10:38:23;;;;;;;0.93;0.47;;;10.00;99.90;;;;;;5081968;27;20230;-70
2023/01/12 10:41:13;;;;;;;0.68;0.50;;;10.00;99.90;;;;;;5096302;27;20676;-69
2023/01/12 10:43:41;;;;;;;0.50;0.50;;;10.00;99.90;;;;;;5073402;27;20211;-69
2023/01/12 10:46:11;;;;;;;0.50;0.50;;;10.00;99.90;;;;;;5088007;27;20203;-69
2023/01/12 10:48:41;;;;;;;0.50;0.50;;;10.10;99.90;;;;;;5081929;27;20579;-69
2023/01/12 10:51:20;;;;;;;0.60;0.60;;;10.10;99.90;;;;;;5091588;27;21001;-69
2023/01/12 10:53:51;;;;;;;0.85;0.55;;;10.10;99.90;;;;;;5092407;27;20199;-68
2023/01/12 10:56:27;;;;;;;0.60;0.60;;;10.10;99.90;;;;;;5098957;27;20202;-69
2023/01/12 10:58:58;;;;;;;0.57;0.52;;;10.10;99.90;;;;;;5072953;27;20230;-69
2023/01/12 11:01:25;;;;;;;0.90;0.63;;;10.10;99.90;;;;;;5098496;27;20615;-69
2023/01/12 11:04:04;;;;;;;0.50;0.43;;;10.20;99.90;;;;;;5037075;27;20695;-70
2023/01/12 11:06:31;;;;;;;0.88;0.50;;;10.20;99.90;;;;;;5077125;27;20565;-69
2023/01/12 11:09:18;;;;;;;0.93;0.70;;;10.20;99.90;;;;;;5050641;27;20700;-69
2023/01/12 11:11:44;;;;;;;0.50;0.43;;;10.30;99.90;;;;;;5097792;27;20227;-69
2023/01/12 11:14:25;;;;;;;0.68;0.68;;;10.30;99.90;;;;;;5070528;27;20207;-69
2023/01/12 11:16:51;;;;;;;1.38;0.63;;;10.20;99.90;;;;;;5093682;27;20252;-70
2023/01/12 11:19:22;;;;;;;1.15;0.88;;;10.30;99.90;;;;;;5080485;27;20199;-69
2023/01/12 11:21:54;;;;;;;0.70;0.70;;;10.40;99.90;;;;;;5080975;27;20702;-70
2023/01/12 11:24:33;;;;;;;0.95;0.60;;;10.40;99.90;;;;;;5091094;27;20195;-69
2023/01/12 11:27:03;;;;;;;3.53;1.00;;;10.40;99.90;;;;;;5095986;27;20226;-70
2023/01/12 11:29:38;;;;;;;2.15;0.85;;;10.40;99.90;;;;;;5067947;27;20218;-70
2023/01/12 11:32:10;;;;;;;1.25;0.90;;;10.40;99.90;;;;;;5094967;27;20250;-70
2023/01/12 11:34:40;;;;;;;1.88;0.95;;;10.50;99.90;;;;;;5065656;27;20296;-70
2023/01/12 11:37:12;;;;;;;1.77;0.88;;;10.50;99.90;;;;;;5085118;27;20219;-70
2023/01/12 11:39:42;;;;;;;1.27;1.00;;;10.50;99.90;;;;;;5080330;27;20276;-70
2023/01/12 11:45:06;;;;;;;5.60;1.20;;;10.50;99.90;;;;;;5072496;27;20274;-70
2023/01/12 11:47:36;;;;;;;3.30;1.10;;;10.50;99.90;;;;;;5091490;27;20215;-70
2023/01/12 11:50:11;;;;;;;3.42;1.48;;;10.60;99.90;;;;;;5080328;27;20717;-70
2023/01/12 11:52:38;;;;;;;4.28;0.88;;;10.60;99.90;;;;;;5074417;27;20218;-70
2023/01/12 11:55:13;;;;;;;5.93;1.23;;;10.70;99.90;;;;;;5084416;27;20215;-70
2023/01/12 11:57:50;;;;;;;5.70;1.38;;;10.70;99.90;;;;;;5075446;27;20790;-70
2023/01/12 12:00:29;;;;;;;4.18;0.90;;;10.80;99.90;;;;;;5064439;27;20203;-70
2023/01/12 12:03:05;;;;;;;5.13;1.17;;;10.80;99.90;;;;;;5047996;27;20233;-71
2023/01/12 12:05:43;;;;;;;4.28;1.35;;;9.90;99.90;;;;;;5069555;27;20702;-70
2023/01/12 12:08:26;;;;;;;1.50;1.10;;;10.80;99.90;;;;;;5077752;27;20289;-70
2023/01/12 12:10:59;;;;;;;6.13;1.33;;;10.80;99.90;;;;;;5037143;27;20219;-71
2023/01/12 12:13:31;;;;;;;5.70;1.30;;;10.80;99.90;;;;;;5093743;27;20190;-71
2023/01/12 12:16:13;;;;;;;9.15;1.90;;;10.80;99.90;;;;;;5066943;27;20200;-70
2023/01/12 12:18:50;;;;;;;5.40;1.50;;;10.80;99.90;;;;;;5070277;27;20203;-70
2023/01/12 12:24:16;;;;;;;5.13;1.63;;;10.80;99.90;;;;;;5028513;22;20240;-69
2023/01/12 12:26:50;;;;;;;4.97;1.50;;;10.90;99.90;;;;;;5057427;22;20240;-70
2023/01/12 12:29:28;;;;;;;6.03;1.63;;;10.90;99.90;;;;;;5032552;28;20220;-70
2023/01/12 12:32:14;;;;;;;8.98;1.60;;;10.80;99.90;;;;;;5023278;28;20228;-71
2023/01/12 12:35:05;;;;;;;4.53;1.42;;;10.90;99.90;;;;;;5060847;28;20206;-70
2023/01/12 12:37:45;;;;;;;5.40;1.42;;;10.80;99.90;;;;;;5044536;28;20200;-70
2023/01/12 12:40:23;;;;;;;5.18;1.42;;;10.80;99.90;;;;;;5037229;28;20665;-70
2023/01/12 12:45:51;;;;;;;1.55;0.65;;;10.80;99.90;;;;;;5056214;28;20250;-70
2023/01/12 12:48:22;;;;;;;4.43;1.48;;;10.90;99.90;;;;;;5033757;28;20960;-71
2023/01/12 12:51:00;;;;;;;6.95;1.67;;;10.80;99.90;;;;;;5040642;28;20211;-70
2023/01/12 12:53:29;;;;;;;6.00;1.63;;;10.90;99.90;;;;;;5045051;28;20231;-71
2023/01/12 12:56:00;;;;;;;5.47;1.40;;;11.00;99.90;;;;;;5045025;28;20199;-70
2023/01/12 12:58:44;;;;;;;8.13;1.90;;;11.00;99.90;;;;;;5038599;28;20212;-70
2023/01/12 13:01:59;;;;;;;7.03;1.40;;;11.00;99.90;;;;;;5032351;28;20219;-71
2023/01/12 13:05:08;;;;;;;9.52;1.95;;;11.00;99.90;;;;;;5047230;28;20321;-71
2023/01/12 13:07:41;;;;;;;6.82;1.75;;;11.00;99.90;;;;;;5034684;28;21427;-71
2023/01/12 13:10:29;;;;;;;9.98;1.90;;;11.10;99.90;;;;;;5052660;28;20213;-70
2023/01/12 13:13:18;;;;;;;10.05;1.67;;;11.10;99.90;;;;;;5048922;28;20906;-70
2023/01/12 13:15:48;;;;;;;10.30;1.77;;;11.10;99.90;;;;;;5048913;28;20685;-70
2023/01/12 13:18:43;;;;;;;6.53;1.95;;;11.10;99.90;;;;;;5030760;28;20204;-71
2023/01/12 13:21:30;;;;;;;4.55;1.40;;;11.10;99.90;;;;;;5036737;28;20233;-72
2023/01/12 13:24:34;;;;;;;6.95;1.67;;;11.10;99.90;;;;;;5007857;28;20209;-71
2023/01/12 13:27:01;;;;;;;6.53;1.70;;;11.20;99.90;;;;;;5028690;28;20988;-71
2023/01/12 13:29:49;;;;;;;8.15;1.60;;;11.20;99.90;;;;;;5058922;28;20200;-71
2023/01/12 13:33:03;;;;;;;5.45;1.33;;;11.10;99.90;;;;;;5054788;28;20360;-70
2023/01/12 13:36:07;;;;;;;8.27;1.60;;;11.10;99.90;;;;;;5004364;28;20229;-70
2023/01/12 13:39:01;;;;;;;5.32;1.50;;;11.20;99.90;;;;;;5026371;28;20728;-70
2023/01/12 13:44:23;;;;;;;6.28;1.83;;;11.10;99.90;;;;;;5037186;28;20255;-71
2023/01/12 13:46:50;;;;;;;6.57;1.77;;;;;;;;;;5024750;28;20574;-70
2023/01/12 13:49:30;;;;;;;6.45;1.77;;;11.10;99.90;;;;;;5025076;28;20211;-70
2023/01/12 13:52:00;;;;;;;7.43;2.20;;;11.20;99.90;;;;;;5027113;28;20232;-70
2023/01/12 13:54:28;;;;;;;6.53;1.83;;;11.10;99.90;;;;;;5014888;28;20224;-71
2023/01/12 13:56:58;;;;;;;6.63;1.60;;;11.20;99.90;;;;;;5038208;28;20220;-71
2023/01/12 13:59:26;;;;;;;4.55;2.08;;;11.10;99.90;;;;;;5041225;28;20204;-71
2023/01/12 14:01:54;;;;;;;7.60;2.03;;;11.10;99.90;;;;;;5024261;28;20246;-71